Main page
METAR-TAF:

METAR-TAF

Airports :

George Enescu International Airport

Bacau, Romania

latitude: 46-35N, longitude: 026-58E, elevation: 184 m

Current weather observation

The report was made 42 minutes ago, at 22:30 UTC
Wind 10 kt from the North/Northwest
Temperature 20°C
Humidity 73%
Pressure 1022 hPa
Visibility 10 km or more
Few clouds at a height of 1600 ft
Scattered clouds at a height of 2200 ft
Broken clouds at a height of 3000 ft

METAR: LRBC 092230Z 34010KT 9999 FEW016 SCT022 BKN030 20/15 Q1022

Time: 02:12 (23:12 UTC)

Forecast

The report was made 3 hours and 12 minutes ago, at 20:00 UTC
Forecast valid from 09 at 21 UTC to 10 at 06 UTC
Wind 14 kt from the North/Northwest
Visibility 10 km or more
Broken clouds at a height of 3000 ft
Temporary
from 09 at 21 UTC to 10 at 03 UTC
Visibility: 5000 m
Broken clouds at a height of 1000 ft
Scattered clouds at a height of 4000 ft, Cumulonimbus.
thunderstorm, light rain

TAF: LRBC 092000Z 0921/1006 34014KT 9999 BKN030 TEMPO 0921/1003 5000 -TSRA BKN010 SCT040CB

Weather observations and forecasts of more than 4000 airports (METAR and TAF reports).

The available stations are represented by yellow and red dots on the map.

Hover mouse over dot to see the name of the station.

Then click to see weather observations and forecasts.

To change the map : click on the green buttons with a black cross to zoom in, on the green button with a dash to zoom out, or on the green arrows for adjacent maps.


METAR-TAF: